Time;durP1;ratioP1;P1;durP2;ratioP2;P2;SDS_P1;SDS_P2;PMS_P1;PMS_P2;Temp;Humidity;BMP_temperature;BMP_pressure;BME280_temperature;BME280_humidity;BME280_pressure;Samples;Min_cycle;Max_cycle;Signal;HPM_P1;HPM_P2
2023/06/17 00:00:47;;;;;;;9.25;5.12;;;;;;;17.75;57.41;99329.00;7791569;32;40769;-82
2023/06/17 00:05:03;;;;;;;9.85;4.70;;;;;;;17.68;57.65;99336.13;7790983;32;37922;-80
2023/06/17 00:09:20;;;;;;;9.40;4.60;;;;;;;17.61;57.91;99337.47;7791546;32;37144;-80
2023/06/17 00:13:37;;;;;;;9.95;4.53;;;;;;;17.59;57.66;99325.97;7791469;32;39372;-81
2023/06/17 00:17:53;;;;;;;10.38;4.80;;;;;;;17.66;57.38;99330.97;7777249;32;39683;-80
2023/06/17 00:22:10;;;;;;;9.23;5.40;;;;;;;17.67;57.37;99348.31;7791017;32;37671;-81
2023/06/17 00:26:26;;;;;;;9.82;5.37;;;;;;;17.65;57.60;99341.19;7791641;32;37250;-81
2023/06/17 00:30:46;;;;;;;9.57;5.00;;;;;;;17.54;57.84;99328.09;7791422;32;40113;-80
2023/06/17 00:35:05;;;;;;;7.25;4.75;;;;;;;17.52;57.95;99344.94;7790971;32;39951;-79
2023/06/17 00:39:22;;;;;;;11.43;5.35;;;;;;;17.59;57.94;99341.69;7775932;32;38542;-81
2023/06/17 00:43:38;;;;;;;8.85;5.15;;;;;;;17.33;58.62;99339.81;7791145;32;37324;-80
2023/06/17 00:47:55;;;;;;;10.52;5.32;;;;;;;17.32;58.59;99337.41;7790868;32;39430;-80
2023/06/17 00:52:13;;;;;;;8.63;4.80;;;;;;;17.32;58.64;99338.22;7790635;32;40018;-81
2023/06/17 00:56:53;;;;;;;9.52;5.70;;;;;;;17.19;58.77;99334.50;7778764;32;38158;-80
2023/06/17 01:01:09;;;;;;;9.48;5.70;;;;;;;17.25;58.32;99338.72;7776433;32;36731;-79
2023/06/17 01:05:27;;;;;;;10.00;5.47;;;;;;;17.16;58.64;99346.19;7775941;32;40108;-80
2023/06/17 01:09:50;;;;;;;9.55;5.35;;;;;;;17.25;58.10;99343.41;7776208;32;40846;-80
2023/06/17 01:14:08;;;;;;;9.95;5.47;;;;;;;17.12;58.07;99336.94;7790157;32;37844;-81
2023/06/17 01:18:25;;;;;;;11.95;5.18;;;;;;;17.10;57.94;99330.97;7790403;32;36408;-79
2023/06/17 01:22:43;;;;;;;8.27;4.93;;;;;;;17.20;57.40;99327.88;7776386;32;39508;-81
2023/06/17 01:27:02;;;;;;;11.70;5.53;;;;;;;17.06;57.71;99330.00;7776043;32;40588;-80
2023/06/17 01:31:18;;;;;;;10.57;4.93;;;;;;;17.18;57.12;99321.09;7788413;32;36891;-80
2023/06/17 01:35:38;;;;;;;9.40;5.40;;;;;;;17.01;57.45;99325.47;7789628;32;38013;-80
2023/06/17 01:39:57;;;;;;;9.63;5.60;;;;;;;16.88;57.76;99330.03;7789366;32;39041;-81
2023/06/17 01:44:15;;;;;;;8.70;5.32;;;;;;;17.06;57.16;99324.50;7789449;32;41030;-80
2023/06/17 01:48:31;;;;;;;10.57;5.53;;;;;;;16.92;57.58;99318.34;7776168;32;37844;-81
2023/06/17 01:52:48;;;;;;;9.48;5.15;;;;;;;16.85;57.85;99319.66;7792967;32;37994;-81
2023/06/17 01:57:05;;;;;;;10.50;5.53;;;;;;;16.95;57.64;99325.97;7793171;32;39344;-79
2023/06/17 02:01:21;;;;;;;11.40;5.78;;;;;;;16.79;58.01;99317.38;7792425;32;39876;-81
2023/06/17 02:05:38;;;;;;;9.23;5.18;;;;;;;16.70;58.21;99326.44;7792462;32;37659;-80
2023/06/17 02:09:54;;;;;;;11.50;5.72;;;;;;;16.76;57.91;99326.25;7793460;32;37040;-80
2023/06/17 02:14:10;;;;;;;9.48;5.20;;;;;;;16.92;57.37;99332.09;7792884;32;39520;-81
2023/06/17 02:18:27;;;;;;;9.43;5.43;;;;;;;16.71;57.81;99338.25;7793144;32;40023;-79
2023/06/17 02:22:43;;;;;;;12.57;5.68;;;;;;;16.62;57.98;99343.75;7793035;32;37841;-80
2023/06/17 02:31:44;;;;;;;11.98;6.40;;;;;;;16.71;57.80;99352.00;7779008;27;20097;-81
2023/06/17 02:36:01;;;;;;;10.20;5.82;;;;;;;16.71;57.67;99346.50;7685336;32;40113;-81
2023/06/17 02:40:17;;;;;;;8.20;5.32;;;;;;;16.68;57.57;99336.16;7685291;32;38692;-81
2023/06/17 02:44:35;;;;;;;10.73;5.50;;;;;;;16.64;57.61;99336.00;7686145;32;37674;-80
2023/06/17 02:48:52;;;;;;;10.60;5.30;;;;;;;16.61;57.70;99346.81;7685289;32;39453;-81
2023/06/17 02:53:08;;;;;;;9.20;5.43;;;;;;;16.46;58.15;99340.66;7685847;32;40572;-80
2023/06/17 02:57:25;;;;;;;9.10;5.12;;;;;;;16.42;58.37;99345.19;7685130;32;38511;-81
2023/06/17 03:01:43;;;;;;;12.37;5.57;;;;;;;16.61;57.66;99346.81;7684701;32;37840;-81
2023/06/17 03:06:05;;;;;;;12.73;5.60;;;;;;;16.44;58.27;99348.44;7691941;32;39376;-81
2023/06/17 03:10:21;;;;;;;9.05;5.22;;;;;;;16.46;58.22;99351.66;7685132;32;39873;-80
2023/06/17 03:14:38;;;;;;;8.57;5.82;;;;;;;16.48;58.09;99357.66;7689522;32;37619;-81
2023/06/17 03:18:55;;;;;;;8.77;5.12;;;;;;;16.58;57.77;99359.28;7711413;32;37351;-81
2023/06/17 03:23:11;;;;;;;8.10;4.95;;;;;;;16.39;58.40;99362.34;7698452;32;40098;-81
2023/06/17 03:27:28;;;;;;;10.98;5.90;;;;;;;16.50;58.09;99365.59;7709585;32;40053;-80
2023/06/17 03:31:44;;;;;;;10.38;5.65;;;;;;;16.27;58.91;99359.41;7710796;32;37547;-80
2023/06/17 03:36:00;;;;;;;9.82;5.90;;;;;;;16.28;58.83;99366.50;7694072;32;37963;-81
2023/06/17 03:40:17;;;;;;;12.57;6.37;;;;;;;16.33;58.72;99363.59;7684878;32;40232;-80
2023/06/17 03:44:34;;;;;;;9.38;5.70;;;;;;;16.35;58.82;99372.38;7684690;32;40912;-81
2023/06/17 03:48:50;;;;;;;12.30;6.65;;;;;;;16.38;58.85;99368.16;7684611;32;38434;-80
2023/06/17 03:53:08;;;;;;;11.40;7.07;;;;;;;16.12;60.12;99380.69;7686035;32;37229;-80
2023/06/17 03:57:25;;;;;;;10.75;6.20;;;;;;;16.26;59.45;99374.28;7684510;32;38486;-80
2023/06/17 04:01:42;;;;;;;12.30;6.75;;;;;;;16.27;59.23;99371.22;7696742;32;40820;-80
2023/06/17 04:05:58;;;;;;;12.55;6.28;;;;;;;16.40;59.11;99374.97;7692379;32;37570;-81
2023/06/17 04:10:14;;;;;;;8.85;5.97;;;;;;;16.39;59.48;99373.34;7691993;32;37935;-81
2023/06/17 04:14:31;;;;;;;9.93;5.80;;;;;;;16.30;60.36;99386.28;7688908;32;40151;-79
2023/06/17 04:18:48;;;;;;;10.63;6.00;;;;;;;16.69;58.87;99382.63;7695364;32;39942;-80
2023/06/17 04:23:04;;;;;;;11.07;6.37;;;;;;;16.73;59.12;99374.53;7684205;32;38044;-80
2023/06/17 04:27:21;;;;;;;9.43;5.80;;;;;;;16.79;58.91;99375.16;7684200;32;37179;-80
2023/06/17 04:31:40;;;;;;;10.32;6.25;;;;;;;16.88;58.66;99379.59;7683906;32;39318;-80
2023/06/17 04:35:57;;;;;;;9.15;5.57;;;;;;;16.92;58.66;99382.50;7684630;32;40749;-80
2023/06/17 04:40:14;;;;;;;12.35;5.68;;;;;;;17.07;58.47;99375.66;7683734;32;38050;-80
2023/06/17 04:44:31;;;;;;;10.73;5.80;;;;;;;17.25;58.50;99382.78;7683777;32;37451;-80
2023/06/17 04:48:47;;;;;;;9.27;5.75;;;;;;;17.49;57.61;99384.22;7683807;32;40226;-80
2023/06/17 04:53:04;;;;;;;11.10;6.00;;;;;;;17.33;57.81;99388.59;7683544;32;40040;-80
2023/06/17 04:57:20;;;;;;;8.75;5.62;;;;;;;17.35;58.13;99378.06;7683421;32;37667;-80
2023/06/17 05:01:36;;;;;;;9.85;5.15;;;;;;;17.49;58.00;99380.62;7689269;32;36849;-79
2023/06/17 05:05:53;;;;;;;9.85;5.25;;;;;;;17.50;57.59;99385.81;7710018;32;39581;-80
2023/06/17 05:10:10;;;;;;;10.65;4.97;;;;;;;17.46;57.43;99388.41;7709838;32;40850;-80
2023/06/17 05:14:26;;;;;;;9.55;5.25;;;;;;;17.73;56.67;99385.59;7709540;32;37832;-80
2023/06/17 05:18:42;;;;;;;9.93;5.43;;;;;;;17.35;56.81;99391.84;7696019;32;38324;-80
2023/06/17 05:22:59;;;;;;;9.82;5.10;;;;;;;17.35;56.58;99402.84;7709651;32;39510;-79
2023/06/17 05:27:16;;;;;;;10.82;5.53;;;;;;;17.39;56.75;99403.84;7709084;32;39928;-79
2023/06/17 05:31:32;;;;;;;12.37;5.53;;;;;;;17.48;55.98;99407.37;7712875;32;38465;-72
2023/06/17 05:35:48;;;;;;;13.43;5.75;;;;;;;17.34;57.27;99413.06;7712912;32;37196;-72
2023/06/17 05:40:05;;;;;;;10.27;4.80;;;;;;;17.27;56.94;99408.06;7712988;32;39996;-72
2023/06/17 05:44:22;;;;;;;11.50;5.28;;;;;;;17.34;57.65;99412.28;7712806;32;40806;-71
2023/06/17 05:48:38;;;;;;;10.25;5.68;;;;;;;17.50;56.76;99405.09;7712819;32;37581;-72
2023/06/17 05:52:54;;;;;;;11.65;5.65;;;;;;;17.24;57.35;99418.91;7712872;32;37695;-72
2023/06/17 05:57:11;;;;;;;9.27;5.00;;;;;;;17.31;56.05;99413.72;7702565;32;39428;-75
2023/06/17 06:01:27;;;;;;;10.75;5.40;;;;;;;17.70;56.87;99419.34;7712845;32;40783;-80
2023/06/17 06:05:44;;;;;;;11.88;5.28;;;;;;;17.43;56.42;99415.81;7712457;32;38741;-79
2023/06/17 06:10:03;;;;;;;11.12;5.50;;;;;;;17.68;56.53;99410.56;7712596;32;37000;-79
2023/06/17 06:14:20;;;;;;;11.02;5.75;;;;;;;17.95;56.48;99420.41;7712511;32;40082;-79
2023/06/17 06:18:36;;;;;;;9.18;5.30;;;;;;;18.00;55.58;99417.47;7712534;32;39763;-79
2023/06/17 06:22:53;;;;;;;13.35;5.35;;;;;;;18.14;55.52;99417.25;7712428;32;38533;-79
2023/06/17 06:27:09;;;;;;;7.55;4.57;;;;;;;18.57;54.81;99417.03;7712348;32;37115;-75
2023/06/17 06:31:26;;;;;;;10.30;4.70;;;;;;;17.88;55.62;99423.69;7704676;32;180859;-80
2023/06/17 06:35:43;;;;;;;10.23;5.30;;;;;;;17.47;57.00;99430.56;7711396;32;40846;-80
2023/06/17 06:40:00;;;;;;;9.65;5.15;;;;;;;17.71;56.37;99432.78;7711113;32;37846;-80
2023/06/17 06:44:17;;;;;;;11.65;5.32;;;;;;;18.01;57.03;99425.41;7711950;32;37084;-83
2023/06/17 06:48:33;;;;;;;9.85;5.25;;;;;;;18.37;55.60;99421.37;7712077;32;40147;-76
2023/06/17 06:52:50;;;;;;;7.82;4.60;;;;;;;18.71;55.91;99407.66;7712046;32;39972;-77
2023/06/17 06:57:06;;;;;;;8.25;4.85;;;;;;;19.38;54.21;99416.91;7712040;32;37557;-77
2023/06/17 07:01:30;;;;;;;13.30;4.95;;;;;;;19.51;52.54;99418.56;7698169;32;37278;-77
2023/06/17 07:05:46;;;;;;;15.98;5.25;;;;;;;19.52;53.29;99409.13;7698755;32;39920;-77
2023/06/17 07:10:03;;;;;;;7.85;4.70;;;;;;;19.90;52.55;99415.56;7711839;32;40095;-77
2023/06/17 07:14:19;;;;;;;10.68;5.20;;;;;;;19.75;53.61;99411.50;7711707;32;38693;-82
2023/06/17 07:18:36;;;;;;;16.45;5.28;;;;;;;20.06;53.56;99418.47;7711690;32;37899;-82
2023/06/17 07:22:52;;;;;;;7.75;4.93;;;;;;;20.35;52.56;99411.91;7711149;32;39953;-82
2023/06/17 07:27:08;;;;;;;10.23;5.18;;;;;;;20.39;52.22;99414.78;7711694;32;40030;-82
2023/06/17 07:31:25;;;;;;;8.43;4.80;;;;;;;20.29;51.44;99412.50;7709587;32;38076;-82
2023/06/17 07:35:41;;;;;;;12.30;4.80;;;;;;;20.58;51.73;99409.47;7702206;32;37248;-82
2023/06/17 07:39:57;;;;;;;9.07;4.55;;;;;;;20.76;51.02;99409.22;7710702;32;39444;-82
2023/06/17 07:44:14;;;;;;;11.07;4.60;;;;;;;20.73;50.81;99415.47;7700736;32;40092;-82
2023/06/17 07:48:32;;;;;;;11.55;5.03;;;;;;;21.01;50.37;99410.78;7701895;32;37594;-83
2023/06/17 07:52:50;;;;;;;7.95;4.53;;;;;;;21.05;51.16;99410.09;7700624;32;37134;-82
2023/06/17 07:57:06;;;;;;;13.13;4.30;;;;;;;21.61;50.38;99401.78;7701234;32;39399;-82
2023/06/17 08:01:22;;;;;;;6.22;3.90;;;;;;;21.76;49.49;99395.41;7699789;32;40038;-82
2023/06/17 08:05:39;;;;;;;9.35;4.15;;;;;;;21.91;48.69;99401.34;7699745;32;37890;-82
2023/06/17 08:09:56;;;;;;;8.30;4.57;;;;;;;21.98;48.45;99403.50;7699401;32;36527;-82
2023/06/17 08:14:12;;;;;;;10.18;4.25;;;;;;;22.00;48.96;99401.97;7701516;32;39099;-83
2023/06/17 08:18:28;;;;;;;12.15;4.57;;;;;;;21.99;49.86;99399.56;7695617;32;39685;-82
2023/06/17 08:22:44;;;;;;;8.35;3.85;;;;;;;22.89;46.37;99388.59;7684314;32;38848;-82
2023/06/17 08:27:01;;;;;;;12.82;4.07;;;;;;;22.37;46.29;99390.63;7684235;32;38026;-81
2023/06/17 08:31:19;;;;;;;7.55;3.58;;;;;;;22.98;44.96;99391.94;7706729;32;39461;-81
2023/06/17 08:35:35;;;;;;;8.27;3.58;;;;;;;23.01;42.79;99388.44;7710077;32;40141;-76
2023/06/17 08:39:52;;;;;;;5.32;3.40;;;;;;;23.15;43.36;99390.75;7710663;32;37962;-77
2023/06/17 08:44:13;;;;;;;6.68;3.85;;;;;;;23.01;44.71;99391.22;7696810;32;36821;-76
2023/06/17 08:48:30;;;;;;;7.65;3.72;;;;;;;23.06;45.73;99379.84;7710600;32;39327;-81
2023/06/17 08:52:48;;;;;;;9.63;3.67;;;;;;;22.82;44.72;99380.91;7708983;32;40613;-82
2023/06/17 08:57:10;;;;;;;6.22;3.70;;;;;;;23.34;44.57;99381.56;7696740;32;37891;-82
2023/06/17 09:01:27;;;;;;;6.45;3.58;;;;;;;23.26;45.67;99379.81;7709567;32;37230;-82
2023/06/17 09:05:43;;;;;;;9.00;4.37;;;;;;;23.42;45.82;99379.72;7710221;32;39776;-81
2023/06/17 09:10:09;;;;;;;5.35;3.50;;;;;;;23.24;45.39;99385.75;7709941;32;40910;-82
2023/06/17 09:14:25;;;;;;;7.75;3.97;;;;;;;23.43;44.33;99386.91;7709793;32;37948;-82
2023/06/17 09:18:41;;;;;;;5.40;3.42;;;;;;;23.41;46.56;99373.38;7696077;32;37172;-82
2023/06/17 09:22:58;;;;;;;6.82;3.37;;;;;;;23.76;42.68;99366.03;7683170;32;39383;-82
2023/06/17 09:27:21;;;;;;;6.43;3.40;;;;;;;23.75;40.77;99381.13;7697659;32;40678;-81
2023/06/17 09:31:51;;;;;;;6.87;3.72;;;;;;;23.91;41.95;99373.50;7708944;32;38898;-81
2023/06/17 09:36:08;;;;;;;5.60;3.42;;;;;;;24.25;41.33;99379.22;7709401;32;37175;-81
2023/06/17 09:40:31;;;;;;;9.35;3.62;;;;;;;24.08;40.45;99390.87;7708090;32;40193;-81
2023/06/17 09:44:47;;;;;;;9.75;3.92;;;;;;;24.68;41.45;99391.00;7697006;32;40836;-81
2023/06/17 09:49:09;;;;;;;5.78;3.33;;;;;;;25.02;41.48;99396.63;7708895;32;38659;-79
2023/06/17 09:53:29;;;;;;;7.07;3.40;;;;;;;24.94;40.03;99386.59;7708628;32;36134;-79
2023/06/17 09:57:53;;;;;;;16.17;4.45;;;;;;;25.55;38.54;99389.28;7708637;32;39099;-79
2023/06/17 10:02:10;;;;;;;7.78;3.42;;;;;;;26.02;38.46;99387.75;7708744;32;40768;-79
2023/06/17 10:06:35;;;;;;;5.57;3.37;;;;;;;25.98;38.08;99386.94;7708488;32;37914;-79
2023/06/17 10:10:53;;;;;;;6.37;3.20;;;;;;;25.97;38.05;99382.53;7708585;32;37845;-79
2023/06/17 10:15:11;;;;;;;9.90;3.50;;;;;;;25.98;35.17;99387.72;7704946;32;39457;-79
2023/06/17 10:19:33;;;;;;;6.18;3.58;;;;;;;25.56;38.23;99377.75;7701615;32;39920;-78
2023/06/17 10:23:53;;;;;;;8.88;3.25;;;;;;;25.79;37.59;99374.78;7711444;32;38016;-79
2023/06/17 10:28:10;;;;;;;11.55;3.62;;;;;;;26.26;35.59;99374.38;7712207;32;37336;-79
2023/06/17 10:32:26;;;;;;;8.80;3.08;;;;;;;25.88;36.61;99382.03;7711454;32;39014;-79
2023/06/17 10:36:47;;;;;;;5.78;2.85;;;;;;;25.88;35.14;99382.03;7708847;32;40149;-79
2023/06/17 10:41:04;;;;;;;10.40;3.42;;;;;;;25.59;33.97;99381.75;7699000;32;37987;-79
2023/06/17 10:45:20;;;;;;;9.38;3.35;;;;;;;25.80;35.69;99384.75;7712220;32;36925;-79
2023/06/17 10:49:40;;;;;;;7.32;3.50;;;;;;;25.58;36.87;99380.97;7712196;32;39901;-79
2023/06/17 10:53:57;;;;;;;5.57;3.50;;;;;;;25.68;35.75;99377.47;7710121;32;40067;-78
2023/06/17 10:58:13;;;;;;;8.98;3.25;;;;;;;26.24;36.43;99378.34;7710153;32;38143;-78
2023/06/17 11:02:30;;;;;;;5.20;3.00;;;;;;;26.13;36.87;99387.84;7690973;32;36900;-78
2023/06/17 11:06:47;;;;;;;9.88;3.00;;;;;;;26.17;36.11;99372.72;7711795;32;39345;-79
2023/06/17 11:11:11;;;;;;;7.28;3.42;;;;;;;26.74;33.06;99371.50;7711671;32;40841;-82
2023/06/17 11:15:28;;;;;;;5.50;3.00;;;;;;;26.34;36.85;99370.44;7710944;32;38758;-81
2023/06/17 11:19:47;;;;;;;9.05;3.30;;;;;;;26.56;35.17;99371.38;7711185;32;37842;-82
2023/06/17 11:24:04;;;;;;;5.70;3.15;;;;;;;27.20;33.47;99373.72;7709568;32;39463;-81
2023/06/17 11:28:21;;;;;;;4.07;2.62;;;;;;;27.57;33.44;99383.03;7710366;32;39687;-81
2023/06/17 11:32:39;;;;;;;4.18;2.60;;;;;;;26.67;34.25;99374.28;7708947;32;38610;-81
2023/06/17 11:36:57;;;;;;;6.65;2.70;;;;;;;26.90;33.49;99369.19;7710374;32;37086;-81
2023/06/17 11:41:13;;;;;;;4.22;2.60;;;;;;;27.21;32.36;99366.91;7711461;32;39387;-81
2023/06/17 11:45:31;;;;;;;5.18;2.70;;;;;;;27.26;31.78;99363.72;7707891;32;40065;-82
2023/06/17 11:49:48;;;;;;;6.12;3.00;;;;;;;27.08;34.12;99369.28;7696884;32;38723;-82
2023/06/17 11:54:06;;;;;;;6.50;2.92;;;;;;;26.60;35.70;99367.41;7710532;32;37064;-82
2023/06/17 11:58:27;;;;;;;7.70;2.85;;;;;;;26.57;32.68;99362.59;7708348;32;38282;-82
2023/06/17 12:02:50;;;;;;;5.32;2.95;;;;;;;26.06;33.66;99377.44;7694758;32;42170;-82
2023/06/17 12:07:17;;;;;;;4.70;2.50;;;;;;;26.75;33.19;99364.72;7707428;32;39129;-88
2023/06/17 12:11:43;;;;;;;5.12;2.87;;;;;;;26.33;34.80;99366.03;7706792;32;37639;-88
2023/06/17 12:16:09;;;;;;;5.78;2.62;;;;;;;26.58;34.84;99364.22;7694737;32;39265;-85
2023/06/17 12:20:28;;;;;;;4.10;2.58;;;;;;;26.34;35.18;99354.47;7708077;32;40849;-82
2023/06/17 12:24:59;;;;;;;3.47;2.35;;;;;;;27.16;34.79;99354.13;7708283;32;36929;-82
2023/06/17 12:29:38;;;;;;;5.10;2.70;;;;;;;27.00;32.36;99342.47;7708014;32;36446;-82
2023/06/17 12:34:06;;;;;;;4.82;2.40;;;;;;;27.40;32.97;99337.00;7706031;32;40127;-82
2023/06/17 12:38:28;;;;;;;6.70;2.45;;;;;;;26.91;31.11;99330.84;7696186;32;40014;-81
2023/06/17 12:42:44;;;;;;;4.35;2.62;;;;;;;27.93;33.99;99333.47;7695899;32;37567;-81
2023/06/17 12:47:01;;;;;;;3.28;2.30;;;;;;;27.90;30.50;99332.22;7703587;32;37948;-81
2023/06/17 12:51:17;;;;;;;5.20;2.40;;;;;;;28.10;34.30;99329.06;7682759;32;40074;-82
2023/06/17 12:55:35;;;;;;;11.60;2.60;;;;;;;28.83;30.15;99322.87;7682618;32;40759;-82
2023/06/17 12:59:51;;;;;;;6.75;2.47;;;;;;;28.17;28.97;99331.84;7683654;32;38674;-82
2023/06/17 13:04:08;;;;;;;3.12;2.28;;;;;;;28.24;31.08;99331.03;7684355;32;37904;-80
2023/06/17 13:08:24;;;;;;;4.75;2.40;;;;;;;28.28;31.61;99321.41;7683465;32;39872;-80
2023/06/17 13:12:41;;;;;;;5.15;2.00;;;;;;;29.25;30.86;99323.09;7682980;32;40133;-81
2023/06/17 13:16:57;;;;;;;2.85;2.10;;;;;;;28.73;28.36;99322.91;7683150;32;38052;-81
2023/06/17 13:21:14;;;;;;;3.22;2.25;;;;;;;28.43;30.55;99333.41;7683160;32;36862;-80
2023/06/17 13:25:31;;;;;;;5.82;1.90;;;;;;;28.75;28.68;99321.31;7683061;32;39433;-80
2023/06/17 13:29:47;;;;;;;5.43;1.92;;;;;;;28.54;30.54;99324.16;7682833;32;41002;-81
2023/06/17 13:34:04;;;;;;;2.90;1.95;;;;;;;28.60;28.21;99314.16;7682848;32;38057;-80
2023/06/17 13:38:23;;;;;;;3.20;1.92;;;;;;;28.00;28.63;99330.66;7682783;32;37128;-82
2023/06/17 13:42:39;;;;;;;2.25;1.90;;;;;;;27.52;29.93;99325.41;7683115;32;40148;-82
2023/06/17 13:46:56;;;;;;;3.00;2.00;;;;;;;27.23;30.80;99335.72;7698470;32;40718;-83
2023/06/17 13:51:12;;;;;;;2.72;1.90;;;;;;;27.77;30.82;99327.44;7686171;32;37660;-82
2023/06/17 13:55:31;;;;;;;2.70;1.80;;;;;;;27.92;29.07;99323.47;7686024;32;37090;-83
2023/06/17 13:59:47;;;;;;;2.85;2.05;;;;;;;28.35;28.85;99320.59;7686067;32;39242;-82
2023/06/17 14:04:04;;;;;;;8.95;4.25;;;;;;;28.51;28.52;99316.53;7686016;32;39781;-82
2023/06/17 14:08:20;;;;;;;4.25;2.20;;;;;;;29.06;29.30;99326.38;7685916;32;37683;-83
2023/06/17 14:12:39;;;;;;;4.55;2.30;;;;;;;29.30;27.36;99316.25;7687669;32;36192;-83
2023/06/17 14:16:57;;;;;;;2.47;2.08;;;;;;;29.63;27.74;99319.62;7712542;32;39408;-82
2023/06/17 14:21:20;;;;;;;2.45;1.80;;;;;;;29.44;27.61;99320.97;7712530;32;39924;-83
2023/06/17 14:25:37;;;;;;;5.82;2.03;;;;;;;29.81;27.81;99311.09;7689583;32;37943;-85
2023/06/17 14:29:53;;;;;;;3.78;2.10;;;;;;;29.00;27.78;99320.41;7685182;32;37035;-79
2023/06/17 14:34:09;;;;;;;7.30;2.42;;;;;;;29.14;27.95;99320.31;7672038;32;40156;-83
2023/06/17 14:38:26;;;;;;;2.62;1.90;;;;;;;29.48;27.20;99322.53;7685438;32;40864;-82
2023/06/17 14:42:42;;;;;;;2.62;1.80;;;;;;;29.33;27.70;99315.44;7685518;32;38421;-79
2023/06/17 14:46:59;;;;;;;2.70;1.60;;;;;;;29.54;26.63;99306.84;7685632;32;37993;-79
2023/06/17 14:51:16;;;;;;;4.43;1.70;;;;;;;29.64;27.64;99312.81;7694454;32;39379;-82
2023/06/17 14:55:32;;;;;;;8.60;2.00;;;;;;;29.91;27.80;99288.53;7702955;32;41168;-79
2023/06/17 14:59:48;;;;;;;4.87;1.92;;;;;;;30.10;25.67;99295.56;7685028;32;37616;-80
2023/06/17 15:04:06;;;;;;;3.28;1.62;;;;;;;29.69;25.78;99292.72;7685311;32;37163;-79
2023/06/17 15:08:23;;;;;;;3.05;1.98;;;;;;;29.47;27.51;99284.44;7692922;32;39952;-79
2023/06/17 15:12:42;;;;;;;2.03;1.60;;;;;;;28.84;27.15;99293.63;7685264;32;40014;-80
2023/06/17 15:16:59;;;;;;;4.32;1.98;;;;;;;28.88;26.66;99296.41;7685136;32;37804;-83
2023/06/17 15:21:16;;;;;;;3.75;2.20;;;;;;;29.05;27.35;99294.72;7701279;32;37164;-84
2023/06/17 15:25:32;;;;;;;3.25;1.70;;;;;;;28.99;27.06;99297.16;7702398;32;39882;-83
2023/06/17 15:29:49;;;;;;;3.65;1.62;;;;;;;29.21;27.53;99306.25;7685114;32;41817;-83
2023/06/17 15:34:06;;;;;;;4.97;1.67;;;;;;;29.01;26.79;99307.94;7685120;32;38000;-83
2023/06/17 15:38:23;;;;;;;2.00;1.48;;;;;;;28.39;27.67;99307.37;7684916;32;37183;-85
2023/06/17 15:42:39;;;;;;;3.60;2.03;;;;;;;28.34;28.70;99312.59;7711672;32;39362;-80
2023/06/17 15:46:59;;;;;;;3.70;1.70;;;;;;;28.34;29.56;99306.97;7711655;32;40168;-85
2023/06/17 15:51:15;;;;;;;10.57;2.30;;;;;;;28.36;28.03;99313.00;7711506;32;38601;-80
2023/06/17 15:55:33;;;;;;;5.07;2.00;;;;;;;28.45;30.19;99314.16;7711504;32;37113;-81
2023/06/17 15:59:53;;;;;;;4.05;1.98;;;;;;;28.45;29.10;99314.16;7712771;32;39432;-83
2023/06/17 16:04:53;;;;;;;4.82;2.22;;;;;;;27.69;30.23;99324.63;7710174;32;40082;-84
2023/06/17 16:09:10;;;;;;;4.18;2.17;;;;;;;28.07;29.22;99325.03;7606989;32;38739;-84
2023/06/17 16:13:28;;;;;;;5.95;2.30;;;;;;;27.71;30.26;99324.25;7649411;32;37100;-83
2023/06/17 16:17:45;;;;;;;4.22;2.50;;;;;;;27.37;30.61;99319.00;7690360;32;38998;-84
2023/06/17 16:22:09;;;;;;;4.10;2.33;;;;;;;28.14;29.57;99321.44;7690825;32;40142;-83
2023/06/17 16:26:26;;;;;;;3.72;2.45;;;;;;;28.02;29.68;99327.47;7707970;32;39052;-83
2023/06/17 16:30:43;;;;;;;2.70;1.95;;;;;;;27.93;29.73;99330.66;7724075;32;37782;-84
2023/06/17 16:35:00;;;;;;;6.22;2.55;;;;;;;27.92;30.29;99331.84;7696026;32;39424;-83
2023/06/17 16:39:16;;;;;;;3.37;2.33;;;;;;;27.69;30.15;99344.22;7684029;32;39815;-82
2023/06/17 16:43:33;;;;;;;6.25;2.72;;;;;;;27.69;30.66;99352.63;7707460;32;38759;-81
2023/06/17 16:47:51;;;;;;;8.38;3.00;;;;;;;27.69;31.03;99354.63;7710428;32;37847;-81
2023/06/17 16:52:08;;;;;;;4.75;2.92;;;;;;;27.50;30.95;99350.22;7710196;32;40124;-85
2023/06/17 16:56:25;;;;;;;5.85;2.95;;;;;;;27.68;30.78;99362.25;7710154;32;40567;-82
2023/06/17 17:00:43;;;;;;;4.97;2.50;;;;;;;27.33;31.95;99368.56;7710227;32;38763;-83
2023/06/17 17:05:00;;;;;;;5.45;2.67;;;;;;;27.17;31.98;99377.28;7708309;32;38882;-82
2023/06/17 17:09:16;;;;;;;7.15;2.90;;;;;;;26.80;32.78;99381.13;7710197;32;39049;-80
2023/06/17 17:13:33;;;;;;;6.72;2.85;;;;;;;26.64;32.68;99389.81;7709410;32;40209;-84
2023/06/17 17:18:04;;;;;;;7.37;3.10;;;;;;;26.03;33.38;99395.75;7709706;32;36571;-86
2023/06/17 17:22:20;;;;;;;4.22;2.60;;;;;;;26.03;33.53;99400.53;7698913;32;36801;-82
2023/06/17 17:26:37;;;;;;;4.53;2.58;;;;;;;26.01;33.44;99394.53;7712696;32;40216;-82
2023/06/17 17:30:53;;;;;;;3.97;2.60;;;;;;;25.97;33.74;99396.50;7712953;32;39915;-87
2023/06/17 17:35:10;;;;;;;5.30;2.22;;;;;;;25.97;33.63;99404.88;7713017;32;38885;-81
2023/06/17 17:39:27;;;;;;;4.93;2.30;;;;;;;25.72;33.93;99408.22;7712828;32;37464;-88
2023/06/17 17:43:43;;;;;;;4.10;2.47;;;;;;;25.81;34.26;99405.87;7712998;32;40048;-81
2023/06/17 17:48:00;;;;;;;5.15;2.58;;;;;;;25.56;34.06;99404.84;7712931;32;39936;-86
2023/06/17 17:52:16;;;;;;;4.32;2.53;;;;;;;25.65;32.26;99397.78;7712799;32;37629;-86
2023/06/17 17:56:33;;;;;;;4.70;2.80;;;;;;;25.43;33.33;99412.69;7712671;32;37888;-84
2023/06/17 18:00:49;;;;;;;5.97;2.70;;;;;;;24.90;33.18;99413.59;7712663;32;39260;-83
2023/06/17 18:05:06;;;;;;;6.65;2.90;;;;;;;24.79;33.16;99423.81;7711026;32;40873;-85
2023/06/17 18:09:23;;;;;;;4.55;2.95;;;;;;;24.70;33.52;99422.09;7685925;32;38800;-86
2023/06/17 18:13:39;;;;;;;4.57;2.50;;;;;;;24.49;33.35;99425.34;7685962;32;37071;-86
2023/06/17 18:17:56;;;;;;;4.47;2.58;;;;;;;24.58;33.58;99430.69;7686949;32;40180;-86
2023/06/17 18:22:12;;;;;;;4.93;2.78;;;;;;;24.49;34.39;99424.53;7712679;32;41182;-81
2023/06/17 18:26:30;;;;;;;4.43;2.65;;;;;;;24.47;33.53;99432.44;7712375;32;38526;-88
2023/06/17 18:30:46;;;;;;;5.03;2.50;;;;;;;24.31;32.90;99438.19;7711292;32;36779;-86
2023/06/17 18:35:03;;;;;;;3.75;2.53;;;;;;;24.21;34.08;99452.72;7712118;32;40183;-86
2023/06/17 18:39:19;;;;;;;4.50;2.53;;;;;;;24.11;33.65;99454.16;7712096;32;39965;-86
2023/06/17 18:43:35;;;;;;;4.72;2.50;;;;;;;24.05;33.72;99466.78;7712074;32;38801;-86
2023/06/17 18:47:52;;;;;;;4.55;2.90;;;;;;;24.13;34.27;99471.31;7712138;32;37155;-86
2023/06/17 18:52:08;;;;;;;8.63;2.90;;;;;;;23.88;35.71;99471.66;7712353;32;38982;-86
2023/06/17 18:56:28;;;;;;;4.45;2.67;;;;;;;23.83;36.22;99477.50;7712077;32;40060;-88
2023/06/17 19:00:46;;;;;;;5.53;2.55;;;;;;;23.83;36.28;99480.28;7702858;32;37677;-85
2023/06/17 19:05:05;;;;;;;5.20;2.87;;;;;;;23.67;36.57;99488.72;7708408;32;38466;-83
2023/06/17 19:09:22;;;;;;;7.15;3.62;;;;;;;23.60;36.01;99500.50;7712000;32;39589;-82
2023/06/17 19:13:38;;;;;;;7.45;3.35;;;;;;;23.41;36.28;99514.41;7702532;32;39679;-87
2023/06/17 19:17:54;;;;;;;5.50;3.05;;;;;;;22.58;37.35;99511.72;7711728;32;37653;-87
2023/06/17 19:22:11;;;;;;;4.80;2.83;;;;;;;22.93;37.38;99517.31;7711802;32;37122;-85
2023/06/17 19:26:27;;;;;;;5.35;2.90;;;;;;;22.95;37.79;99516.94;7711806;32;39332;-84
2023/06/17 19:30:46;;;;;;;6.75;2.97;;;;;;;23.01;37.62;99521.06;7705792;32;40899;-84
2023/06/17 19:35:04;;;;;;;6.93;2.58;;;;;;;22.76;37.96;99529.63;7708923;32;37445;-86
2023/06/17 19:39:20;;;;;;;5.30;3.08;;;;;;;22.74;38.56;99526.38;7708492;32;36739;-85
2023/06/17 19:43:36;;;;;;;4.70;3.10;;;;;;;22.56;38.70;99519.59;7707640;32;39908;-86
2023/06/17 19:47:53;;;;;;;7.10;3.37;;;;;;;22.35;40.11;99536.53;7711559;32;40859;-80
2023/06/17 19:52:10;;;;;;;7.12;3.10;;;;;;;22.24;40.29;99548.12;7704482;32;38055;-83
2023/06/17 19:56:27;;;;;;;5.82;3.33;;;;;;;22.21;40.08;99540.50;7708761;32;37574;-84
2023/06/17 20:00:49;;;;;;;7.28;3.33;;;;;;;22.10;40.70;99536.66;7709229;32;39387;-83
2023/06/17 20:05:11;;;;;;;6.75;3.40;;;;;;;22.10;40.29;99540.22;7708941;32;39665;-82
2023/06/17 20:09:29;;;;;;;7.75;3.05;;;;;;;21.99;40.69;99541.91;7709532;32;37913;-81
2023/06/17 20:13:46;;;;;;;7.07;3.47;;;;;;;22.06;40.64;99544.88;7709174;32;36804;-82